Time;durP1;ratioP1;P1;durP2;ratioP2;P2;SDS_P1;SDS_P2;PMS_P1;PMS_P2;Temp;Humidity;BMP_temperature;BMP_pressure;BME280_temperature;BME280_humidity;BME280_pressure;Samples;Min_cycle;Max_cycle;Signal;HPM_P1;HPM_P2
2023/05/02 00:01:08;;;;;;;8.93;7.38;;;;;;;12.40;100.00;100509.47;5074195;28;20478;-76
2023/05/02 00:03:34;;;;;;;8.68;7.47;;;;;;;12.41;100.00;100505.06;5067911;28;20145;-75
2023/05/02 00:05:59;;;;;;;10.43;8.07;;;;;;;12.40;100.00;100503.44;5051186;28;20071;-74
2023/05/02 00:08:25;;;;;;;10.00;8.10;;;;;;;12.45;100.00;100506.41;5068687;28;20394;-74
2023/05/02 00:10:50;;;;;;;11.27;9.52;;;;;;;12.46;100.00;100492.34;5073900;28;20159;-74
2023/05/02 00:13:16;;;;;;;16.52;10.18;;;;;;;12.48;100.00;100479.94;5066810;28;20424;-74
2023/05/02 00:15:41;;;;;;;8.93;7.90;;;;;;;12.44;100.00;100495.13;5058305;28;20627;-74
2023/05/02 00:18:07;;;;;;;12.05;9.85;;;;;;;12.45;100.00;100490.72;5071743;28;20484;-74
2023/05/02 00:20:32;;;;;;;9.95;8.90;;;;;;;12.45;100.00;100486.31;5066230;28;20024;-74
2023/05/02 00:22:57;;;;;;;10.30;9.20;;;;;;;12.42;100.00;100486.63;5073374;28;20044;-74
2023/05/02 00:25:23;;;;;;;8.98;7.97;;;;;;;12.38;100.00;100492.31;5072968;28;20072;-74
2023/05/02 00:27:49;;;;;;;16.65;9.07;;;;;;;12.38;100.00;100474.84;5074412;28;20541;-74
2023/05/02 00:30:16;;;;;;;11.30;8.98;;;;;;;12.30;100.00;100470.38;5068425;28;20032;-74
2023/05/02 00:32:42;;;;;;;13.07;9.02;;;;;;;12.35;100.00;100476.94;5081047;28;20540;-74
2023/05/02 00:35:08;;;;;;;12.63;9.73;;;;;;;12.36;100.00;100468.13;5073384;28;20111;-74
2023/05/02 00:37:33;;;;;;;11.82;8.98;;;;;;;12.35;100.00;100472.53;5051202;28;20028;-74
2023/05/02 00:39:59;;;;;;;11.10;9.00;;;;;;;12.34;100.00;100467.47;5080162;28;20042;-73
2023/05/02 00:42:24;;;;;;;10.43;8.30;;;;;;;12.28;100.00;100464.53;5064888;28;20032;-74
2023/05/02 00:44:50;;;;;;;9.90;8.40;;;;;;;12.28;100.00;100455.88;5067513;28;20074;-74
2023/05/02 00:47:15;;;;;;;10.82;8.57;;;;;;;12.30;100.00;100440.84;5072947;28;20110;-74
2023/05/02 00:49:41;;;;;;;10.95;9.50;;;;;;;12.35;100.00;100448.22;5077581;28;20031;-74
2023/05/02 00:52:07;;;;;;;9.52;7.70;;;;;;;12.33;100.00;100437.09;5075480;28;20369;-74
2023/05/02 00:54:33;;;;;;;13.18;8.45;;;;;;;12.32;100.00;100425.00;5071246;28;20032;-75
2023/05/02 00:56:58;;;;;;;16.25;9.50;;;;;;;12.33;100.00;100417.00;5074608;28;20091;-74
2023/05/02 00:59:25;;;;;;;11.65;8.88;;;;;;;12.26;100.00;100401.16;5050862;28;20551;-75
2023/05/02 01:02:26;;;;;;;10.85;9.07;;;;;;;12.23;100.00;100392.81;5076711;28;20029;-74
2023/05/02 01:05:31;;;;;;;10.82;9.35;;;;;;;12.21;100.00;100398.22;5072875;28;20052;-74
2023/05/02 01:08:02;;;;;;;13.35;9.13;;;;;;;12.24;100.00;100392.66;5071966;28;20105;-75
2023/05/02 01:10:42;;;;;;;9.57;7.85;;;;;;;12.19;100.00;100386.28;5072270;28;20208;-74
2023/05/02 01:13:13;;;;;;;10.23;8.82;;;;;;;12.26;100.00;100376.84;5069271;28;20078;-75
2023/05/02 01:15:40;;;;;;;8.90;8.00;;;;;;;12.27;100.00;100362.81;5078765;28;20120;-74
2023/05/02 01:18:10;;;;;;;6.00;2.88;;;;;;;12.24;100.00;100361.31;5073594;28;20021;-74
2023/05/02 01:20:40;;;;;;;2.17;1.98;;;;;;;12.28;100.00;100352.19;5072765;28;20488;-74
2023/05/02 01:23:16;;;;;;;1.83;1.73;;;;;;;12.31;100.00;100351.03;5074450;28;20033;-73
2023/05/02 01:26:20;;;;;;;2.10;1.38;;;;;;;12.28;100.00;100352.19;5078862;28;20025;-74
2023/05/02 01:28:58;;;;;;;2.22;1.30;;;;;;;12.32;100.00;100349.25;5073283;28;20082;-74
2023/05/02 01:31:40;;;;;;;2.40;2.20;;;;;;;12.45;100.00;100339.97;5067050;28;20119;-76
2023/05/02 01:34:09;;;;;;;6.38;5.70;;;;;;;12.46;100.00;100338.19;5071891;28;20519;-75
2023/05/02 01:36:36;;;;;;;7.15;6.28;;;;;;;12.41;100.00;100332.63;5068470;28;20036;-76
2023/05/02 01:39:02;;;;;;;8.32;6.40;;;;;;;12.37;100.00;100344.38;5069793;28;20062;-74
2023/05/02 01:41:31;;;;;;;7.63;6.22;;;;;;;12.35;100.00;100333.25;5050481;28;20043;-75
2023/05/02 01:43:59;;;;;;;9.55;7.30;;;;;;;12.34;100.00;100342.88;5071577;28;20024;-75
2023/05/02 01:46:33;;;;;;;6.50;5.80;;;;;;;12.35;100.00;100346.31;5049504;28;20746;-76
2023/05/02 01:49:02;;;;;;;4.28;3.88;;;;;;;12.32;100.00;100337.00;5081189;28;20036;-75
2023/05/02 01:51:35;;;;;;;5.70;5.05;;;;;;;12.37;100.00;100342.56;5052473;28;20120;-75
2023/05/02 01:54:05;;;;;;;3.15;2.45;;;;;;;12.27;100.00;100347.13;5062534;28;20378;-74
2023/05/02 01:56:34;;;;;;;2.45;2.25;;;;;;;12.30;100.00;100336.34;5075364;28;20025;-75
2023/05/02 01:59:04;;;;;;;2.28;2.03;;;;;;;12.30;100.00;100342.38;5057754;28;20081;-76
2023/05/02 02:01:32;;;;;;;1.13;0.88;;;;;;;12.29;100.00;100345.97;5062885;28;20033;-76
2023/05/02 02:04:00;;;;;;;1.95;0.63;;;;;;;12.29;100.00;100339.94;5067323;28;20484;-75
2023/05/02 02:06:27;;;;;;;1.80;0.75;;;;;;;12.37;100.00;100346.97;5068999;28;20040;-75
2023/05/02 02:08:54;;;;;;;0.50;0.30;;;;;;;12.43;100.00;100338.50;5066172;28;20055;-76
2023/05/02 02:11:26;;;;;;;1.30;0.80;;;;;;;12.45;100.00;100345.22;5032962;28;20868;-77
2023/05/02 02:14:00;;;;;;;1.17;0.60;;;;;;;12.37;100.00;100347.78;5031807;28;20053;-78
2023/05/02 02:16:37;;;;;;;3.22;2.70;;;;;;;12.41;100.00;100348.28;5047830;28;20032;-77
2023/05/02 02:19:07;;;;;;;1.63;1.42;;;;;;;12.36;100.00;100361.84;5049279;28;20033;-77
2023/05/02 02:21:35;;;;;;;1.80;1.30;;;;;;;12.34;100.00;100353.34;5045424;28;20111;-79
2023/05/02 02:24:03;;;;;;;0.88;0.40;;;;;;;12.34;100.00;100357.75;5057181;28;20047;-78
2023/05/02 02:26:29;;;;;;;1.90;1.70;;;;;;;12.43;100.00;100354.19;5052115;28;20068;-77
2023/05/02 02:28:55;;;;;;;3.78;3.15;;;;;;;12.52;100.00;100359.28;5047443;28;20065;-78
2023/05/02 02:31:20;;;;;;;4.70;4.22;;;;;;;12.55;100.00;100361.56;5048238;28;20047;-78
2023/05/02 02:33:46;;;;;;;6.15;5.55;;;;;;;12.56;100.00;100363.22;5047347;28;20100;-77
2023/05/02 02:36:27;;;;;;;7.45;5.90;;;;;;;12.57;100.00;100374.47;5047599;28;20507;-77
2023/05/02 02:39:21;;;;;;;8.32;7.35;;;;;;;12.49;100.00;100383.13;5048480;28;20033;-77
2023/05/02 02:42:13;;;;;;;8.75;7.85;;;;;;;12.47;100.00;100373.78;5048055;28;20413;-77
2023/05/02 02:44:50;;;;;;;11.18;8.13;;;;;;;12.47;100.00;100385.06;5040138;28;20032;-76
2023/05/02 02:47:25;;;;;;;12.25;10.02;;;;;;;12.50;100.00;100376.91;5044189;28;20028;-76
2023/05/02 02:49:54;;;;;;;11.68;10.00;;;;;;;12.53;100.00;100376.59;5049594;28;20040;-76
2023/05/02 02:52:51;;;;;;;14.50;10.80;;;;;;;12.57;100.00;100371.88;5052768;28;20052;-76
2023/05/02 02:55:28;;;;;;;14.05;11.50;;;;;;;12.56;100.00;100372.84;5052701;28;20044;-75
2023/05/02 02:58:02;;;;;;;13.38;11.55;;;;;;;12.51;100.00;100369.88;5049378;28;20025;-75
2023/05/02 03:00:28;;;;;;;13.18;11.32;;;;;;;12.44;100.00;100371.50;5043811;28;20052;-76
2023/05/02 03:02:55;;;;;;;16.10;12.25;;;;;;;12.43;100.00;100369.84;5051125;28;20021;-75
2023/05/02 03:05:21;;;;;;;17.23;12.38;;;;;;;12.46;100.00;100372.16;5054583;28;20036;-76
2023/05/02 03:07:47;;;;;;;12.02;10.82;;;;;;;12.48;100.00;100372.81;5042548;28;20029;-75
2023/05/02 03:10:13;;;;;;;15.82;11.02;;;;;;;12.50;100.00;100370.88;5047134;28;20025;-75
2023/05/02 03:12:42;;;;;;;13.10;10.35;;;;;;;12.48;100.00;100368.41;5050081;28;20036;-75
2023/05/02 03:15:39;;;;;;;10.32;9.13;;;;;;;12.41;100.00;100362.19;5051722;28;20508;-75
2023/05/02 03:18:05;;;;;;;10.30;8.13;;;;;;;12.40;100.00;100359.72;5044225;28;20072;-74
2023/05/02 03:20:30;;;;;;;11.95;9.13;;;;;;;12.44;100.00;100358.44;5039205;28;20068;-74
2023/05/02 03:22:56;;;;;;;8.85;7.95;;;;;;;12.45;100.00;100355.66;5046617;28;20044;-74
2023/05/02 03:25:21;;;;;;;9.98;9.02;;;;;;;12.43;100.00;100359.41;5048029;28;20040;-74
2023/05/02 03:27:47;;;;;;;11.38;8.60;;;;;;;12.43;100.00;100351.56;5052018;28;20048;-75
2023/05/02 03:30:12;;;;;;;10.30;9.30;;;;;;;12.40;100.00;100350.09;5047206;28;20519;-73
2023/05/02 03:32:37;;;;;;;10.15;8.80;;;;;;;12.42;100.00;100365.59;5050546;28;20020;-74
2023/05/02 03:35:03;;;;;;;11.63;9.20;;;;;;;12.40;100.00;100351.88;5050069;28;20032;-74
2023/05/02 03:37:28;;;;;;;9.15;8.25;;;;;;;12.39;100.00;100358.09;5048436;28;20032;-74
2023/05/02 03:39:54;;;;;;;10.45;8.70;;;;;;;12.42;100.00;100360.38;5046742;28;20120;-74
2023/05/02 03:42:20;;;;;;;9.32;8.32;;;;;;;12.44;100.00;100355.81;5044040;28;20047;-74
2023/05/02 03:44:46;;;;;;;7.82;6.93;;;;;;;12.42;100.00;100355.16;5050175;28;20108;-73
2023/05/02 03:47:12;;;;;;;9.98;8.43;;;;;;;12.43;100.00;100365.44;5044086;28;20043;-74
2023/05/02 03:49:38;;;;;;;8.60;7.65;;;;;;;12.42;100.00;100361.19;5044857;28;20052;-74
2023/05/02 03:52:04;;;;;;;9.65;8.05;;;;;;;12.44;100.00;100358.44;5046671;28;20040;-74
2023/05/02 03:54:32;;;;;;;13.13;7.90;;;;;;;12.40;100.00;100365.78;5043834;28;20029;-73
2023/05/02 03:56:58;;;;;;;10.75;7.60;;;;;;;12.40;100.00;100372.78;5048303;28;20040;-74
2023/05/02 03:59:23;;;;;;;10.32;7.00;;;;;;;12.38;100.00;100364.28;5044384;28;20407;-74
2023/05/02 04:01:49;;;;;;;8.20;7.05;;;;;;;12.36;100.00;100361.84;5047982;28;20033;-74
2023/05/02 04:04:15;;;;;;;10.73;8.10;;;;;;;12.37;100.00;100373.09;5044629;28;20047;-73
2023/05/02 04:06:40;;;;;;;11.05;8.30;;;;;;;12.37;100.00;100366.09;5051453;28;20021;-74
2023/05/02 04:09:06;;;;;;;8.73;7.82;;;;;;;12.37;100.00;100373.09;5050747;28;20037;-73
2023/05/02 04:11:32;;;;;;;10.60;9.00;;;;;;;12.40;100.00;100367.56;5043470;28;20041;-73
2023/05/02 04:13:57;;;;;;;10.30;8.82;;;;;;;12.37;100.00;100370.50;5065330;28;20048;-73
2023/05/02 04:16:23;;;;;;;13.05;10.07;;;;;;;12.40;100.00;100362.34;5073966;28;20036;-73
2023/05/02 04:18:48;;;;;;;12.02;9.18;;;;;;;12.40;100.00;100365.78;5046668;28;20444;-73
2023/05/02 04:21:14;;;;;;;14.27;9.35;;;;;;;12.38;100.00;100365.09;5071666;28;20384;-74
2023/05/02 04:23:39;;;;;;;8.52;5.30;;;;;;;12.24;100.00;100366.56;5069838;28;20029;-74
2023/05/02 04:26:05;;;;;;;5.57;4.47;;;;;;;12.15;100.00;100362.25;5072230;28;20060;-74
2023/05/02 04:28:31;;;;;;;5.43;3.58;;;;;;;12.13;100.00;100371.22;5063879;28;20029;-74
2023/05/02 04:30:56;;;;;;;5.07;4.68;;;;;;;12.20;100.00;100373.06;5075712;28;20067;-74
2023/05/02 04:33:23;;;;;;;7.88;5.35;;;;;;;12.23;100.00;100370.13;5063209;28;20036;-74
2023/05/02 04:35:49;;;;;;;7.68;5.40;;;;;;;12.28;100.00;100374.91;5067457;28;20475;-74
2023/05/02 04:38:15;;;;;;;5.97;5.03;;;;;;;12.24;100.00;100363.94;5068491;28;20115;-74
2023/05/02 04:40:40;;;;;;;3.78;1.83;;;;;;;12.13;100.00;100359.00;5064381;28;20067;-74
2023/05/02 04:43:06;;;;;;;2.28;1.50;;;;;;;12.10;100.00;100364.53;5066766;28;20048;-75
2023/05/02 04:45:36;;;;;;;2.72;2.00;;;;;;;12.16;100.00;100363.91;5064570;28;20029;-74
2023/05/02 04:48:02;;;;;;;2.92;1.75;;;;;;;12.11;100.00;100373.19;5064555;28;20037;-74
2023/05/02 04:50:28;;;;;;;1.20;0.57;;;;;;;12.11;100.00;100371.38;5067075;28;20135;-74
2023/05/02 04:52:56;;;;;;;0.95;0.70;;;;;;;12.12;100.00;100380.84;5072682;28;20387;-76
2023/05/02 04:55:21;;;;;;;1.15;0.75;;;;;;;12.11;100.00;100389.66;5064849;28;20134;-75
2023/05/02 04:57:47;;;;;;;1.77;0.65;;;;;;;12.14;100.00;100394.59;5065553;28;20029;-76
2023/05/02 05:00:12;;;;;;;5.75;1.08;;;;;;;12.17;100.00;100414.34;5064047;28;20041;-76
2023/05/02 05:02:38;;;;;;;2.42;2.10;;;;;;;12.11;100.00;100421.00;5070478;28;20029;-76
2023/05/02 05:05:05;;;;;;;3.80;3.50;;;;;;;12.05;100.00;100429.47;5071432;28;20111;-76
2023/05/02 05:07:30;;;;;;;3.97;3.67;;;;;;;12.01;100.00;100438.56;5068671;28;20025;-76
2023/05/02 05:09:56;;;;;;;5.18;4.72;;;;;;;11.99;100.00;100435.28;5072275;28;20029;-77
2023/05/02 05:12:21;;;;;;;5.97;5.38;;;;;;;12.00;100.00;100450.00;5074959;28;20037;-75
2023/05/02 05:14:47;;;;;;;7.05;5.70;;;;;;;12.02;100.00;100442.81;5072806;28;20131;-76
2023/05/02 05:17:13;;;;;;;6.38;5.60;;;;;;;12.06;100.00;100448.56;5072217;28;20032;-76
2023/05/02 05:19:38;;;;;;;8.30;6.45;;;;;;;12.07;100.00;100450.19;5054604;28;20032;-76
2023/05/02 05:22:03;;;;;;;7.53;6.70;;;;;;;12.09;100.00;100451.69;5071868;28;20372;-76
2023/05/02 05:24:29;;;;;;;10.57;7.72;;;;;;;12.12;100.00;100453.16;5072564;28;20032;-76
2023/05/02 05:26:55;;;;;;;10.02;7.60;;;;;;;12.13;100.00;100450.41;5071922;28;20024;-76
2023/05/02 05:29:20;;;;;;;8.38;7.43;;;;;;;12.18;100.00;100452.56;5070546;28;20527;-76
2023/05/02 05:31:46;;;;;;;10.20;8.52;;;;;;;12.19;100.00;100452.41;5061155;28;20037;-76
2023/05/02 05:34:13;;;;;;;10.15;7.85;;;;;;;12.23;100.00;100452.91;5068771;28;20028;-76
2023/05/02 05:36:41;;;;;;;9.98;7.75;;;;;;;12.25;100.00;100459.63;5071199;28;20044;-75
2023/05/02 05:39:10;;;;;;;12.30;7.30;;;;;;;12.25;100.00;100459.63;5075758;28;20133;-76
2023/05/02 05:41:37;;;;;;;8.18;7.38;;;;;;;12.20;100.00;100458.44;5079758;28;20036;-76
2023/05/02 05:44:04;;;;;;;7.15;6.45;;;;;;;12.11;100.00;100462.78;5070041;28;20033;-75
2023/05/02 05:46:29;;;;;;;6.35;5.47;;;;;;;12.07;100.00;100464.06;5047356;28;20032;-74
2023/05/02 05:48:56;;;;;;;7.47;6.78;;;;;;;12.10;100.00;100466.38;5066671;28;20048;-76
2023/05/02 05:51:23;;;;;;;8.45;7.43;;;;;;;12.15;100.00;100464.13;5070698;28;20036;-76
2023/05/02 05:53:48;;;;;;;9.40;7.03;;;;;;;12.11;100.00;100483.69;5066696;28;20039;-76
2023/05/02 05:56:15;;;;;;;8.60;6.05;;;;;;;12.06;100.00;100475.50;5069025;28;20036;-76
2023/05/02 05:58:42;;;;;;;8.05;5.72;;;;;;;12.05;100.00;100484.28;5067721;28;20100;-76
2023/05/02 06:01:08;;;;;;;6.05;4.88;;;;;;;12.05;100.00;100481.69;5067453;28;20060;-77
2023/05/02 06:03:35;;;;;;;5.13;4.72;;;;;;;12.03;100.00;100478.41;5072418;28;20125;-76
2023/05/02 06:06:00;;;;;;;5.18;4.65;;;;;;;12.03;100.00;100477.59;5065889;28;20081;-76
2023/05/02 06:08:26;;;;;;;6.43;4.47;;;;;;;12.06;100.00;100485.94;5064952;28;20023;-76
2023/05/02 06:10:51;;;;;;;4.40;3.60;;;;;;;12.04;100.00;100487.88;5070217;28;20082;-77
2023/05/02 06:13:17;;;;;;;4.53;3.53;;;;;;;12.08;100.00;100488.41;5056625;28;20147;-75
2023/05/02 06:15:43;;;;;;;2.88;2.45;;;;;;;12.05;100.00;100489.53;5056090;28;20055;-75
2023/05/02 06:18:08;;;;;;;3.20;2.90;;;;;;;12.08;100.00;100491.00;5053407;28;20081;-75
2023/05/02 06:20:35;;;;;;;4.85;2.20;;;;;;;12.10;100.00;100494.28;5061659;28;20051;-75
2023/05/02 06:23:01;;;;;;;4.95;1.88;;;;;;;12.07;100.00;100487.56;5067261;28;20123;-75
2023/05/02 06:25:26;;;;;;;4.47;1.65;;;;;;;12.08;100.00;100489.22;5061500;28;20105;-75
2023/05/02 06:27:51;;;;;;;2.35;1.50;;;;;;;12.10;100.00;100489.88;5058918;28;20062;-75
2023/05/02 06:30:17;;;;;;;1.60;0.80;;;;;;;12.10;100.00;100491.69;5052265;28;20024;-74
2023/05/02 06:32:42;;;;;;;3.33;1.20;;;;;;;12.11;100.00;100490.69;5072187;28;20032;-76
2023/05/02 06:35:10;;;;;;;2.88;1.58;;;;;;;12.12;100.00;100497.56;5064046;28;20033;-76
2023/05/02 06:37:35;;;;;;;1.65;1.42;;;;;;;12.10;100.00;100502.94;5070784;28;20051;-76
2023/05/02 06:40:01;;;;;;;1.35;1.15;;;;;;;12.08;100.00;100510.09;5069946;28;20028;-76
2023/05/02 06:42:28;;;;;;;1.95;1.23;;;;;;;12.05;100.00;100506.97;5069450;28;20589;-77
2023/05/02 06:44:54;;;;;;;3.58;1.75;;;;;;;12.03;100.00;100504.53;5052668;28;20052;-76
2023/05/02 06:47:19;;;;;;;1.63;1.45;;;;;;;12.09;100.00;100508.31;5052394;28;20028;-76
2023/05/02 06:49:45;;;;;;;2.70;1.20;;;;;;;12.07;100.00;100512.88;5051121;28;20384;-78
2023/05/02 06:52:10;;;;;;;2.03;1.20;;;;;;;12.11;100.00;100515.03;5062008;28;20123;-77
2023/05/02 06:54:35;;;;;;;3.25;1.38;;;;;;;12.12;100.00;100519.28;5044560;28;20036;-77
2023/05/02 06:57:01;;;;;;;2.05;1.60;;;;;;;12.17;100.00;100524.88;5061885;28;20037;-77
2023/05/02 06:59:27;;;;;;;4.80;1.60;;;;;;;12.20;100.00;100514.09;5062381;28;20028;-77
2023/05/02 07:01:52;;;;;;;3.58;1.65;;;;;;;12.23;100.00;100510.38;5047790;28;20028;-76
2023/05/02 07:04:18;;;;;;;1.95;1.75;;;;;;;12.24;100.00;100509.41;5063765;28;20119;-76
2023/05/02 07:06:44;;;;;;;1.05;0.90;;;;;;;12.28;100.00;100500.28;5038115;28;20163;-76
2023/05/02 07:09:10;;;;;;;1.95;1.00;;;;;;;12.28;100.00;100500.28;5061199;28;20448;-77
2023/05/02 07:11:36;;;;;;;1.48;1.38;;;;;;;12.25;100.00;100509.25;5059629;28;20033;-77
2023/05/02 07:14:01;;;;;;;1.50;1.08;;;;;;;12.27;100.00;100515.13;5068062;28;20048;-77
2023/05/02 07:16:27;;;;;;;3.58;1.33;;;;;;;12.28;100.00;100513.34;5063949;28;20036;-77
2023/05/02 07:18:52;;;;;;;1.42;1.30;;;;;;;12.27;100.00;100520.38;5063586;28;20377;-77
2023/05/02 07:21:18;;;;;;;3.35;1.58;;;;;;;12.29;100.00;100517.56;5057041;28;20182;-78
2023/05/02 07:23:43;;;;;;;1.33;1.20;;;;;;;12.32;100.00;100519.06;5058290;28;20117;-80
2023/05/02 07:26:09;;;;;;;2.20;1.88;;;;;;;12.28;100.00;100524.63;5065069;28;20028;-76
2023/05/02 07:28:34;;;;;;;1.60;0.90;;;;;;;12.32;100.00;100519.06;5070822;28;20024;-76
2023/05/02 07:31:00;;;;;;;3.03;1.58;;;;;;;12.32;100.00;100522.47;5069707;28;20056;-74
2023/05/02 07:33:25;;;;;;;5.63;1.92;;;;;;;12.33;100.00;100523.31;5068492;28;20041;-73
2023/05/02 07:35:51;;;;;;;1.35;1.10;;;;;;;12.36;100.00;100523.81;5074496;28;20051;-77
2023/05/02 07:38:16;;;;;;;3.88;1.85;;;;;;;12.45;100.00;100522.06;5069749;28;20033;-75
2023/05/02 07:40:42;;;;;;;2.40;1.83;;;;;;;12.48;100.00;100533.03;5070312;28;20024;-76
2023/05/02 07:43:08;;;;;;;2.60;2.17;;;;;;;12.53;100.00;100529.97;5069806;28;20028;-75
2023/05/02 07:45:34;;;;;;;2.47;2.28;;;;;;;12.56;100.00;100530.47;5063752;28;20385;-74
2023/05/02 07:47:59;;;;;;;2.63;2.17;;;;;;;12.65;100.00;100539.19;5070518;28;20086;-75
2023/05/02 07:50:26;;;;;;;1.77;1.50;;;;;;;12.55;100.00;100544.50;5070284;28;20032;-75
2023/05/02 07:52:51;;;;;;;3.88;2.40;;;;;;;12.50;100.00;100536.31;5070417;28;20041;-75
2023/05/02 07:55:17;;;;;;;2.67;1.77;;;;;;;12.57;100.00;100542.56;5064647;28;20070;-75
2023/05/02 07:57:43;;;;;;;4.18;2.20;;;;;;;12.70;100.00;100542.16;5067749;28;20077;-74
2023/05/02 08:00:09;;;;;;;2.55;2.10;;;;;;;12.80;100.00;100540.22;5047791;28;20099;-75
2023/05/02 08:02:35;;;;;;;8.25;2.70;;;;;;;12.79;100.00;100543.78;5069668;28;20430;-74
2023/05/02 08:05:02;;;;;;;2.00;1.80;;;;;;;12.79;100.00;100538.56;5071067;28;20063;-75
2023/05/02 08:07:27;;;;;;;2.35;2.08;;;;;;;12.81;100.00;100533.19;5067948;28;20028;-75
2023/05/02 08:09:53;;;;;;;1.42;1.33;;;;;;;12.72;100.00;100549.84;5065596;28;20028;-76
2023/05/02 08:12:18;;;;;;;0.70;0.47;;;;;;;12.59;100.00;100543.22;5068089;28;20036;-75
2023/05/02 08:14:43;;;;;;;1.20;0.60;;;;;;;12.60;100.00;100539.66;5067735;28;20503;-74
2023/05/02 08:17:09;;;;;;;3.28;0.70;;;;;;;12.68;100.00;100536.25;5069856;28;20502;-75
2023/05/02 08:19:34;;;;;;;1.00;0.80;;;;;;;12.69;100.00;100545.75;5072724;28;20425;-74
2023/05/02 08:22:00;;;;;;;3.00;0.85;;;;;;;12.69;100.00;100550.97;5069104;28;20036;-75
2023/05/02 08:24:25;;;;;;;0.98;0.80;;;;;;;12.64;100.00;100542.75;5050839;28;20052;-75
2023/05/02 08:26:51;;;;;;;4.75;1.20;;;;;;;12.71;100.00;100554.25;5066026;28;20473;-74
2023/05/02 08:29:16;;;;;;;1.17;1.00;;;;;;;12.75;100.00;100545.13;5072309;28;20255;-75
2023/05/02 08:31:42;;;;;;;2.30;1.13;;;;;;;12.81;100.00;100544.47;5070160;28;20448;-75
2023/05/02 08:34:07;;;;;;;1.67;0.88;;;;;;;12.84;100.00;100549.38;5071815;28;20040;-74
2023/05/02 08:36:33;;;;;;;1.30;0.85;;;;;;;12.83;100.00;100546.91;5051449;28;20028;-75
2023/05/02 08:38:58;;;;;;;2.60;1.02;;;;;;;12.92;100.00;100552.03;5062850;28;20021;-75
2023/05/02 08:41:25;;;;;;;1.45;1.10;;;;;;;13.02;100.00;100561.56;5068068;28;20031;-75
2023/05/02 08:43:52;;;;;;;9.38;1.35;;;;;;;13.09;100.00;100546.88;5078229;28;20116;-75
2023/05/02 08:46:17;;;;;;;4.47;1.45;;;;;;;13.14;100.00;100562.91;5073186;28;20036;-75
2023/05/02 08:48:47;;;;;;;4.22;1.65;;;;;;;13.21;100.00;100561.34;5073889;28;20020;-75
2023/05/02 08:51:16;;;;;;;1.20;0.90;;;;;;;13.20;100.00;100565.75;5073191;28;20067;-75
2023/05/02 08:53:42;;;;;;;2.70;1.05;;;;;;;13.24;100.00;100576.69;5069086;28;20074;-76
2023/05/02 08:56:09;;;;;;;3.90;1.02;;;;;;;13.10;100.00;100570.25;5070217;28;20028;-76
2023/05/02 08:58:36;;;;;;;5.13;0.73;;;;;;;13.15;100.00;100567.16;5066469;28;20028;-75
2023/05/02 09:01:09;;;;;;;1.13;0.30;;;;;;;13.04;100.00;100564.84;5071577;28;20576;-75
2023/05/02 09:03:35;;;;;;;1.70;0.38;;;;;;;12.91;100.00;100563.47;5071320;28;20399;-75
2023/05/02 09:06:09;;;;;;;0.38;0.22;;;;;;;12.82;100.00;100572.25;5073529;28;20127;-76
2023/05/02 09:08:36;;;;;;;1.65;0.30;;;;;;;12.86;100.00;100572.75;5066032;28;20032;-78
2023/05/02 09:11:02;;;;;;;0.50;0.30;;;;;;;13.01;100.00;100565.16;5073477;28;20020;-76
2023/05/02 09:13:39;;;;;;;1.23;0.47;;;;;;;12.95;100.00;100572.63;5072188;28;20052;-76
2023/05/02 09:16:12;;;;;;;0.98;0.50;;;;;;;13.01;100.00;100571.19;5073318;28;20028;-75
2023/05/02 09:18:47;;;;;;;1.00;0.63;;;;;;;13.11;100.00;100568.47;5061636;28;20114;-77
2023/05/02 09:21:21;;;;;;;1.63;0.55;;;;;;;13.15;100.00;100575.00;5046839;28;20503;-75
2023/05/02 09:23:57;;;;;;;0.90;0.40;;;;;;;13.10;100.00;100575.47;5056193;28;20040;-74
2023/05/02 09:26:31;;;;;;;2.25;0.40;;;;;;;13.12;100.00;100573.53;5063445;28;20040;-77
2023/05/02 09:28:57;;;;;;;1.27;0.70;;;;;;;13.16;100.00;100576.69;5069753;28;20476;-79
2023/05/02 09:31:24;;;;;;;0.98;0.70;;;;;;;13.25;100.00;100588.78;5069670;28;20142;-77
2023/05/02 09:33:51;;;;;;;2.58;0.77;;;;;;;13.26;100.00;100590.44;5072946;28;20024;-78
2023/05/02 09:36:18;;;;;;;0.98;0.50;;;;;;;13.25;100.00;100584.38;5074532;28;20037;-77
2023/05/02 09:38:47;;;;;;;0.85;0.55;;;;;;;13.29;100.00;100590.13;5067758;28;20029;-78
2023/05/02 09:41:13;;;;;;;2.08;0.50;;;;;;;13.33;100.00;100574.91;5071561;28;20028;-80
2023/05/02 09:43:39;;;;;;;0.50;0.40;;;;;;;13.29;100.00;100579.66;5054665;28;20043;-79
2023/05/02 09:46:10;;;;;;;1.00;0.55;;;;;;;13.30;100.00;100583.91;5072015;28;20059;-83
2023/05/02 09:48:56;;;;;;;1.58;0.50;;;;;;;13.21;100.00;100577.03;5072482;28;20028;-80
2023/05/02 09:51:23;;;;;;;1.67;0.30;;;;;;;13.17;100.00;100576.53;5068548;28;20446;-80
2023/05/02 09:53:50;;;;;;;2.97;0.52;;;;;;;13.15;100.00;100580.25;5073458;28;20113;-79
2023/05/02 09:56:16;;;;;;;0.90;0.30;;;;;;;13.16;100.00;100579.31;5083237;28;20043;-77
2023/05/02 09:58:41;;;;;;;0.60;0.40;;;;;;;13.23;100.00;100577.69;5083116;28;20025;-77
2023/05/02 10:01:07;;;;;;;1.67;0.40;;;;;;;13.26;100.00;100578.16;5057957;28;20122;-77
2023/05/02 10:03:36;;;;;;;0.65;0.40;;;;;;;13.27;100.00;100573.75;5062622;28;20116;-77
2023/05/02 10:06:03;;;;;;;0.88;0.40;;;;;;;13.23;100.00;100568.00;5056762;28;20040;-77
2023/05/02 10:08:32;;;;;;;1.25;0.73;;;;;;;13.22;100.00;100563.78;5066327;28;20048;-77
2023/05/02 10:10:59;;;;;;;4.97;0.40;;;;;;;13.22;100.00;100573.44;5058760;28;20619;-78
2023/05/02 10:13:30;;;;;;;0.57;0.30;;;;;;;13.16;100.00;100563.59;5076453;28;20046;-77
2023/05/02 10:16:05;;;;;;;0.60;0.30;;;;;;;13.14;100.00;100562.91;5074953;28;20032;-77
2023/05/02 10:19:02;;;;;;;0.47;0.20;;;;;;;13.08;100.00;100569.59;5067206;28;20162;-77
2023/05/02 10:21:28;;;;;;;0.50;0.20;;;;;;;13.17;100.00;100567.84;5075583;28;20563;-77
2023/05/02 10:23:55;;;;;;;0.77;0.20;;;;;;;13.34;100.00;100566.09;5054090;28;20469;-75
2023/05/02 10:26:22;;;;;;;0.38;0.20;;;;;;;13.37;100.00;100569.22;5070863;28;20047;-78
2023/05/02 10:28:48;;;;;;;0.40;0.20;;;;;;;13.37;100.00;100578.84;5073507;28;20029;-75
2023/05/02 10:31:15;;;;;;;0.50;0.30;;;;;;;13.43;100.00;100555.47;5069690;28;20036;-77
2023/05/02 10:33:40;;;;;;;1.67;0.20;;;;;;;13.41;100.00;100567.91;5056829;28;20052;-80
2023/05/02 10:36:08;;;;;;;0.40;0.20;;;;;;;13.40;100.00;100561.03;5047199;28;20044;-79
2023/05/02 10:38:36;;;;;;;0.75;0.20;;;;;;;13.49;100.00;100556.63;5051223;28;20056;-79
2023/05/02 10:41:13;;;;;;;0.98;0.20;;;;;;;13.51;100.00;100557.31;5072316;28;20119;-75
2023/05/02 10:43:39;;;;;;;0.60;0.30;;;;;;;13.47;100.00;100562.03;5050514;28;20033;-81
2023/05/02 10:46:34;;;;;;;0.40;0.20;;;;;;;13.48;100.00;100557.63;5063703;28;20380;-80
2023/05/02 10:49:01;;;;;;;0.50;0.20;;;;;;;13.64;100.00;100560.28;5067054;28;20043;-77
2023/05/02 10:51:32;;;;;;;1.25;0.20;;;;;;;13.65;100.00;100569.75;5072666;28;20488;-81
2023/05/02 10:54:17;;;;;;;0.40;0.20;;;;;;;13.69;100.00;100559.78;5082568;28;20059;-81
2023/05/02 10:57:14;;;;;;;0.43;0.20;;;;;;;13.74;100.00;100553.06;5076134;28;20043;-84
2023/05/02 10:59:41;;;;;;;0.30;0.10;;;;;;;13.91;100.00;100565.19;5047673;28;20044;-82
2023/05/02 11:02:22;;;;;;;0.55;0.20;;;;;;;14.35;100.00;100559.56;5091307;28;20459;-80
2023/05/02 11:05:08;;;;;;;0.30;0.20;;;;;;;14.67;100.00;100563.94;5062216;28;20064;-81
2023/05/02 11:07:36;;;;;;;0.40;0.20;;;;;;;14.91;100.00;100563.06;5072767;28;20035;-81
2023/05/02 11:10:16;;;;;;;1.48;0.20;;;;;;;15.05;100.00;100566.78;5075371;28;20055;-80
2023/05/02 11:12:44;;;;;;;0.60;0.20;;;;;;;15.13;100.00;100566.72;5078803;28;20024;-79
2023/05/02 11:15:10;;;;;;;0.30;0.20;;;;;;;15.28;100.00;100568.44;5080889;28;20491;-80
2023/05/02 11:18:06;;;;;;;0.40;0.20;;;;;;;15.40;94.63;100574.13;5064513;28;20036;-77
2023/05/02 11:20:32;;;;;;;0.40;0.20;;;;;;;15.45;97.08;100563.94;5066706;28;20413;-78